Time;durP1;ratioP1;P1;durP2;ratioP2;P2;SDS_P1;SDS_P2;PMS_P1;PMS_P2;Temp;Humidity;BMP_temperature;BMP_pressure;BME280_temperature;BME280_humidity;BME280_pressure;Samples;Min_cycle;Max_cycle;Signal;HPM_P1;HPM_P2
2024/01/04 00:00:25;;;;;;;0.47;0.20;;;7.70;99.90;;;;;;5026742;28;20048;-76
2024/01/04 00:02:51;;;;;;;1.30;0.10;;;7.60;99.90;;;;;;5043452;28;20096;-77
2024/01/04 00:05:18;;;;;;;0.10;0.00;;;7.70;99.90;;;;;;5045042;28;20060;-75
2024/01/04 00:07:44;;;;;;;0.88;0.10;;;7.60;99.90;;;;;;5020216;28;20219;-77
2024/01/04 00:10:09;;;;;;;0.43;0.22;;;7.60;99.90;;;;;;5039543;28;20058;-75
2024/01/04 00:12:35;;;;;;;0.20;0.10;;;7.60;99.90;;;;;;5043012;28;20017;-75
2024/01/04 00:15:03;;;;;;;0.00;0.00;;;7.50;99.90;;;;;;5042635;28;20043;-76
2024/01/04 00:17:32;;;;;;;0.00;0.00;;;7.50;99.90;;;;;;5029886;28;20061;-75
2024/01/04 00:19:58;;;;;;;0.10;0.00;;;7.50;99.90;;;;;;5029793;28;20068;-77
2024/01/04 00:22:24;;;;;;;0.00;0.00;;;7.50;99.90;;;;;;5042361;28;20071;-76
2024/01/04 00:24:50;;;;;;;0.00;0.00;;;7.50;99.90;;;;;;5045060;28;20026;-78
2024/01/04 00:27:15;;;;;;;0.30;0.20;;;7.40;99.90;;;;;;5047373;28;20097;-74
2024/01/04 00:29:44;;;;;;;0.00;0.00;;;7.40;99.90;;;;;;5043017;28;20662;-77
2024/01/04 00:32:10;;;;;;;0.00;0.00;;;7.50;99.90;;;;;;5041728;28;20038;-77
2024/01/04 00:34:36;;;;;;;0.10;0.00;;;7.40;99.90;;;;;;5025224;28;20080;-75
2024/01/04 00:37:03;;;;;;;0.00;0.00;;;7.40;99.90;;;;;;5045654;28;20109;-76
2024/01/04 00:39:29;;;;;;;0.30;0.13;;;7.40;99.90;;;;;;5041921;28;20041;-77
2024/01/04 00:41:56;;;;;;;0.38;0.10;;;7.30;99.90;;;;;;5021861;28;20038;-75
2024/01/04 00:44:22;;;;;;;0.00;0.00;;;7.30;99.90;;;;;;5025954;28;20042;-77
2024/01/04 00:46:47;;;;;;;0.00;0.00;;;7.30;99.90;;;;;;5031216;28;20064;-77
2024/01/04 00:49:13;;;;;;;0.22;0.08;;;7.30;99.90;;;;;;5046894;28;20099;-76
2024/01/04 00:51:40;;;;;;;0.03;0.00;;;7.30;99.90;;;;;;5028942;28;20041;-75
2024/01/04 00:54:06;;;;;;;0.00;0.00;;;7.30;99.90;;;;;;5046889;28;20053;-76
2024/01/04 00:56:33;;;;;;;1.45;0.30;;;7.30;99.90;;;;;;5030740;28;20083;-76
2024/01/04 00:59:02;;;;;;;0.65;0.10;;;7.20;99.90;;;;;;5035004;28;20065;-78
2024/01/04 01:01:30;;;;;;;0.20;0.15;;;7.30;99.90;;;;;;5040031;28;20053;-75
2024/01/04 01:03:57;;;;;;;1.65;0.00;;;7.20;99.90;;;;;;5040130;28;20101;-77
2024/01/04 01:06:23;;;;;;;0.00;0.00;;;7.20;99.90;;;;;;5022447;28;20034;-75
2024/01/04 01:08:48;;;;;;;0.00;0.00;;;7.10;99.90;;;;;;5022435;28;20485;-76
2024/01/04 01:11:14;;;;;;;3.60;0.63;;;7.10;99.90;;;;;;5043091;28;20034;-76
2024/01/04 01:13:40;;;;;;;0.25;0.15;;;7.10;99.90;;;;;;5027590;28;20037;-76
2024/01/04 01:16:06;;;;;;;0.40;0.25;;;7.00;99.90;;;;;;5038311;28;20064;-77
2024/01/04 01:18:31;;;;;;;4.43;0.20;;;7.00;99.90;;;;;;5042490;28;20136;-75
2024/01/04 01:21:01;;;;;;;0.10;0.10;;;7.00;99.90;;;;;;5044599;28;20071;-78
2024/01/04 01:23:26;;;;;;;0.63;0.43;;;7.00;99.90;;;;;;5039600;28;20051;-76
2024/01/04 01:25:52;;;;;;;2.72;0.25;;;7.00;99.90;;;;;;5040004;28;20098;-75
2024/01/04 01:28:18;;;;;;;0.00;0.00;;;6.90;99.90;;;;;;5030004;28;20073;-76
2024/01/04 01:30:43;;;;;;;0.00;0.00;;;6.80;99.90;;;;;;5024775;28;20086;-76
2024/01/04 01:33:09;;;;;;;0.57;0.13;;;6.90;99.90;;;;;;5041054;28;20073;-75
2024/01/04 01:35:35;;;;;;;0.20;0.10;;;6.80;99.90;;;;;;5038490;28;20092;-77
2024/01/04 01:38:00;;;;;;;0.20;0.00;;;6.80;99.90;;;;;;5038133;28;20042;-77
2024/01/04 01:40:26;;;;;;;0.00;0.00;;;6.80;99.90;;;;;;5021899;28;20061;-76
2024/01/04 01:42:52;;;;;;;1.83;0.20;;;6.80;99.90;;;;;;5037255;28;20092;-75
2024/01/04 01:45:20;;;;;;;0.10;0.10;;;6.70;99.90;;;;;;5018787;28;20041;-77
2024/01/04 01:47:46;;;;;;;0.10;0.10;;;6.80;99.90;;;;;;5043250;28;20101;-78
2024/01/04 01:50:13;;;;;;;1.05;0.60;;;6.70;99.90;;;;;;5045848;28;20045;-75
2024/01/04 01:52:40;;;;;;;0.00;0.00;;;6.70;99.90;;;;;;5022241;28;20076;-78
2024/01/04 01:55:09;;;;;;;0.10;0.10;;;6.70;99.90;;;;;;5024387;28;20042;-78
2024/01/04 01:57:35;;;;;;;4.75;0.28;;;6.70;99.90;;;;;;5025709;28;20203;-77
2024/01/04 02:00:02;;;;;;;0.10;0.10;;;6.60;99.90;;;;;;5020495;28;20084;-75
2024/01/04 02:02:28;;;;;;;0.98;0.47;;;6.70;99.90;;;;;;5042226;28;20121;-78
2024/01/04 02:04:54;;;;;;;0.00;0.00;;;6.70;99.90;;;;;;5035564;28;20042;-76
2024/01/04 02:07:20;;;;;;;4.57;0.45;;;6.60;99.90;;;;;;5023728;28;20034;-77
2024/01/04 02:09:46;;;;;;;0.00;0.00;;;6.60;99.90;;;;;;5039341;28;20038;-76
2024/01/04 02:12:13;;;;;;;0.40;0.10;;;6.70;99.90;;;;;;5040257;28;20057;-76
2024/01/04 02:14:40;;;;;;;0.20;0.20;;;6.60;99.90;;;;;;5040877;28;20140;-76
2024/01/04 02:17:06;;;;;;;1.20;0.03;;;6.60;99.90;;;;;;5027878;28;20114;-77
2024/01/04 02:19:32;;;;;;;0.00;0.00;;;6.60;99.90;;;;;;5042710;28;20041;-77
2024/01/04 02:21:58;;;;;;;0.57;0.30;;;6.60;99.90;;;;;;5022949;28;20041;-75
2024/01/04 02:24:25;;;;;;;0.00;0.00;;;6.50;99.90;;;;;;5024169;28;20106;-76
2024/01/04 02:26:51;;;;;;;0.10;0.08;;;6.60;99.90;;;;;;5048152;28;20041;-77
2024/01/04 02:29:17;;;;;;;0.00;0.00;;;6.60;99.90;;;;;;5022702;28;20053;-77
2024/01/04 02:31:44;;;;;;;0.10;0.00;;;6.50;99.90;;;;;;5040455;28;20162;-77
2024/01/04 02:34:10;;;;;;;1.60;0.30;;;6.50;99.90;;;;;;5041735;28;20030;-76
2024/01/04 02:36:35;;;;;;;3.30;0.28;;;6.50;99.90;;;;;;5037745;28;20030;-76
2024/01/04 02:39:01;;;;;;;0.00;0.00;;;6.50;99.90;;;;;;5043730;28;20034;-76
2024/01/04 02:41:27;;;;;;;2.53;0.10;;;6.50;99.90;;;;;;5024278;28;20088;-76
2024/01/04 02:43:52;;;;;;;0.10;0.10;;;6.40;99.90;;;;;;5023259;28;20037;-77
2024/01/04 02:46:18;;;;;;;2.22;0.17;;;6.40;99.90;;;;;;5039757;28;20038;-77
2024/01/04 02:48:44;;;;;;;0.73;0.22;;;6.40;99.90;;;;;;5043420;28;20044;-78
2024/01/04 02:51:09;;;;;;;3.83;0.10;;;6.40;99.90;;;;;;5030674;28;20048;-74
2024/01/04 02:53:36;;;;;;;0.00;0.00;;;6.40;99.90;;;;;;5044542;28;20060;-78
2024/01/04 02:56:04;;;;;;;1.15;0.10;;;6.40;99.90;;;;;;5020887;28;20046;-78
2024/01/04 02:58:30;;;;;;;1.55;0.32;;;6.40;99.90;;;;;;5024961;28;20337;-76
2024/01/04 03:00:55;;;;;;;0.50;0.05;;;6.40;99.90;;;;;;5045861;28;20041;-77
2024/01/04 03:03:21;;;;;;;0.10;0.10;;;6.30;99.90;;;;;;5019883;28;20052;-75
2024/01/04 03:05:47;;;;;;;0.05;0.00;;;6.30;99.90;;;;;;5025666;28;20080;-77
2024/01/04 03:08:13;;;;;;;0.10;0.00;;;6.40;99.90;;;;;;5038813;28;20046;-77
2024/01/04 03:10:39;;;;;;;0.00;0.00;;;6.40;99.90;;;;;;5036972;28;20057;-75
2024/01/04 03:13:06;;;;;;;0.03;0.00;;;6.40;99.90;;;;;;5020139;28;20056;-76
2024/01/04 03:15:32;;;;;;;0.00;0.00;;;6.40;99.90;;;;;;5040254;28;20038;-76
2024/01/04 03:17:58;;;;;;;0.17;0.10;;;6.40;99.90;;;;;;5024710;28;20095;-78
2024/01/04 03:20:23;;;;;;;0.00;0.00;;;6.30;99.90;;;;;;5039791;28;20141;-76
2024/01/04 03:22:49;;;;;;;0.17;0.05;;;6.30;99.90;;;;;;5033502;28;20651;-75
2024/01/04 03:25:15;;;;;;;0.00;0.00;;;6.30;99.90;;;;;;5039080;28;20045;-78
2024/01/04 03:27:42;;;;;;;0.98;0.10;;;6.30;99.90;;;;;;5022508;28;20041;-74
2024/01/04 03:30:08;;;;;;;0.22;0.10;;;6.30;99.90;;;;;;5023072;28;20041;-76
2024/01/04 03:32:34;;;;;;;0.00;0.00;;;6.30;99.90;;;;;;5041457;28;20057;-76
2024/01/04 03:35:00;;;;;;;0.10;0.00;;;6.30;99.90;;;;;;5042077;28;20042;-76
2024/01/04 03:37:25;;;;;;;1.95;0.28;;;6.30;99.90;;;;;;5042086;28;20041;-77
2024/01/04 03:39:51;;;;;;;0.10;0.10;;;6.30;99.90;;;;;;5024633;28;20157;-77
2024/01/04 03:42:17;;;;;;;0.00;0.00;;;6.30;99.90;;;;;;5026051;28;20049;-78
2024/01/04 03:44:43;;;;;;;0.00;0.00;;;6.30;99.90;;;;;;5045888;28;20056;-76
2024/01/04 03:47:09;;;;;;;0.47;0.10;;;6.20;99.90;;;;;;5027582;28;20041;-76
2024/01/04 03:49:35;;;;;;;3.17;0.40;;;6.20;99.90;;;;;;5030313;28;20041;-77
2024/01/04 03:52:02;;;;;;;0.52;0.10;;;6.30;99.90;;;;;;5034476;28;20041;-76
2024/01/04 03:54:28;;;;;;;1.10;0.43;;;6.20;99.90;;;;;;5041870;28;20072;-76
2024/01/04 03:56:54;;;;;;;0.00;0.00;;;6.20;99.90;;;;;;5048731;28;20025;-78
2024/01/04 03:59:20;;;;;;;0.00;0.00;;;6.20;99.90;;;;;;5039898;28;20053;-77
2024/01/04 04:01:46;;;;;;;1.00;0.10;;;6.20;99.90;;;;;;5044812;28;20045;-76
2024/01/04 04:04:12;;;;;;;0.38;0.10;;;6.20;99.90;;;;;;5026769;28;20069;-78
2024/01/04 04:06:39;;;;;;;0.35;0.17;;;6.20;99.90;;;;;;5029539;28;20063;-76
2024/01/04 04:09:07;;;;;;;0.17;0.00;;;6.20;99.90;;;;;;5039213;28;20072;-77
2024/01/04 04:11:33;;;;;;;0.10;0.10;;;6.20;99.90;;;;;;5045969;28;20034;-78
2024/01/04 04:13:59;;;;;;;0.00;0.00;;;6.10;99.90;;;;;;5028833;28;20049;-77
2024/01/04 04:16:25;;;;;;;0.00;0.00;;;6.10;99.90;;;;;;5042136;28;20061;-77
2024/01/04 04:18:50;;;;;;;0.00;0.00;;;6.20;99.90;;;;;;5045393;28;20044;-78
2024/01/04 04:21:24;;;;;;;3.17;0.05;;;6.20;99.90;;;;;;5043456;28;20177;-76
2024/01/04 04:23:50;;;;;;;2.85;0.40;;;6.20;99.90;;;;;;5042663;28;20037;-75
2024/01/04 04:26:20;;;;;;;0.00;0.00;;;6.20;99.90;;;;;;5046817;28;20038;-77
2024/01/04 04:28:47;;;;;;;3.53;0.10;;;6.10;99.90;;;;;;5042694;28;20030;-77
2024/01/04 04:31:17;;;;;;;9.20;0.30;;;6.10;99.90;;;;;;5050174;28;20033;-77
2024/01/04 04:33:45;;;;;;;0.32;0.03;;;6.10;99.90;;;;;;5042103;28;20591;-77
2024/01/04 04:36:11;;;;;;;0.00;0.00;;;6.10;99.90;;;;;;5048237;28;20067;-75
2024/01/04 04:38:37;;;;;;;0.00;0.00;;;6.10;99.90;;;;;;5045475;28;20030;-77
2024/01/04 04:41:07;;;;;;;0.20;0.03;;;6.10;99.90;;;;;;5043849;28;20060;-78
2024/01/04 04:43:33;;;;;;;3.83;0.25;;;6.00;99.90;;;;;;5045609;28;20037;-76
2024/01/04 04:46:01;;;;;;;0.22;0.00;;;6.10;99.90;;;;;;5040103;28;20045;-76
2024/01/04 04:48:27;;;;;;;1.10;0.10;;;6.10;99.90;;;;;;5043227;28;20046;-77
2024/01/04 04:50:54;;;;;;;1.50;0.20;;;6.00;99.90;;;;;;5024585;28;20129;-76
2024/01/04 04:53:22;;;;;;;0.00;0.00;;;6.00;99.90;;;;;;5039938;28;20052;-76
2024/01/04 04:55:48;;;;;;;0.08;0.08;;;6.00;99.90;;;;;;5041670;28;20067;-77
2024/01/04 04:58:14;;;;;;;0.00;0.00;;;6.00;99.90;;;;;;5042413;28;20041;-77
2024/01/04 05:00:40;;;;;;;1.27;0.10;;;5.90;99.90;;;;;;5047393;28;20046;-76
2024/01/04 05:03:06;;;;;;;0.20;0.13;;;5.90;99.90;;;;;;5045850;28;20053;-78
2024/01/04 05:05:33;;;;;;;0.22;0.10;;;5.90;99.90;;;;;;5047058;28;20030;-75
2024/01/04 05:07:59;;;;;;;0.00;0.00;;;5.90;99.90;;;;;;5019018;28;20137;-77
2024/01/04 05:10:24;;;;;;;0.32;0.13;;;5.90;99.90;;;;;;5046598;28;20050;-78
2024/01/04 05:12:51;;;;;;;0.00;0.00;;;5.90;99.90;;;;;;5039040;28;20140;-76
2024/01/04 05:15:17;;;;;;;0.00;0.00;;;5.90;99.90;;;;;;5026999;28;20053;-77
2024/01/04 05:17:43;;;;;;;0.25;0.08;;;5.90;99.90;;;;;;5041302;28;20017;-77
2024/01/04 05:20:09;;;;;;;0.10;0.10;;;5.90;99.90;;;;;;5045857;28;20103;-76
2024/01/04 05:22:35;;;;;;;0.65;0.38;;;5.90;99.90;;;;;;5032348;28;20033;-78
2024/01/04 05:25:01;;;;;;;0.00;0.00;;;5.90;99.90;;;;;;5041077;28;20038;-78
2024/01/04 05:27:26;;;;;;;0.00;0.00;;;5.90;99.90;;;;;;5044218;28;20049;-78
2024/01/04 05:29:54;;;;;;;0.10;0.00;;;5.90;99.90;;;;;;5023092;28;20107;-77
2024/01/04 05:32:20;;;;;;;0.00;0.00;;;5.90;99.90;;;;;;5045449;28;20056;-76
2024/01/04 05:34:45;;;;;;;0.15;0.10;;;5.90;99.90;;;;;;5032772;28;20624;-80
2024/01/04 05:37:11;;;;;;;0.32;0.10;;;5.80;99.90;;;;;;5023460;28;20073;-79
2024/01/04 05:39:37;;;;;;;2.72;0.05;;;5.90;99.90;;;;;;5026724;28;20049;-80
2024/01/04 05:42:03;;;;;;;0.30;0.17;;;5.80;99.90;;;;;;5014516;28;20111;-80
2024/01/04 05:44:29;;;;;;;0.80;0.22;;;5.80;99.90;;;;;;5014079;28;20050;-80
2024/01/04 05:46:54;;;;;;;0.00;0.00;;;5.80;99.90;;;;;;5008886;28;20060;-80
2024/01/04 05:49:20;;;;;;;0.00;0.00;;;5.80;99.90;;;;;;5026167;28;20045;-80
2024/01/04 05:51:46;;;;;;;0.05;0.05;;;5.80;99.90;;;;;;5002546;28;20042;-81
2024/01/04 05:54:12;;;;;;;0.00;0.00;;;5.80;99.90;;;;;;5022873;28;20045;-79
2024/01/04 05:56:38;;;;;;;0.00;0.00;;;5.80;99.90;;;;;;5000685;28;20069;-80
2024/01/04 05:59:04;;;;;;;0.00;0.00;;;5.70;99.90;;;;;;5005705;28;20050;-80
2024/01/04 06:01:30;;;;;;;2.60;0.20;;;5.70;99.90;;;;;;5023978;28;20057;-81
2024/01/04 06:03:55;;;;;;;1.45;0.10;;;5.70;99.90;;;;;;5018377;28;20750;-80
2024/01/04 06:06:21;;;;;;;5.25;0.20;;;5.80;99.90;;;;;;5024894;28;20041;-81
2024/01/04 06:08:47;;;;;;;0.68;0.00;;;5.70;99.90;;;;;;5006230;28;20025;-80
2024/01/04 06:11:13;;;;;;;1.08;0.52;;;5.70;99.90;;;;;;5020571;28;20044;-81
2024/01/04 06:13:38;;;;;;;0.00;0.00;;;5.60;99.90;;;;;;5021597;28;20050;-80
2024/01/04 06:16:05;;;;;;;0.00;0.00;;;5.60;99.90;;;;;;5033362;28;20050;-80
2024/01/04 06:18:31;;;;;;;0.00;0.00;;;5.60;99.90;;;;;;5023132;28;20042;-81
2024/01/04 06:20:57;;;;;;;2.75;0.10;;;5.60;99.90;;;;;;5013016;28;20049;-79
2024/01/04 06:23:23;;;;;;;0.75;0.15;;;5.60;99.90;;;;;;5006474;28;20038;-81
2024/01/04 06:25:48;;;;;;;3.83;0.22;;;5.60;99.90;;;;;;5014532;28;20495;-80
2024/01/04 06:28:14;;;;;;;2.03;0.15;;;5.50;99.90;;;;;;5024376;28;20029;-79
2024/01/04 06:30:40;;;;;;;0.05;0.00;;;5.60;99.90;;;;;;5031958;28;20044;-80
2024/01/04 06:33:06;;;;;;;0.73;0.08;;;5.50;99.90;;;;;;5011109;28;20093;-81
2024/01/04 06:35:31;;;;;;;1.30;0.57;;;5.50;99.90;;;;;;5028763;28;20034;-81
2024/01/04 06:37:57;;;;;;;0.10;0.10;;;5.50;99.90;;;;;;5027119;28;20060;-80
2024/01/04 06:40:23;;;;;;;3.65;1.83;;;5.50;99.90;;;;;;5013959;28;20083;-80
2024/01/04 06:42:55;;;;;;;0.05;0.00;;;5.50;99.90;;;;;;5031960;28;20061;-80
2024/01/04 06:45:25;;;;;;;1.65;0.03;;;5.50;99.90;;;;;;5029076;28;20045;-81
2024/01/04 06:47:50;;;;;;;2.30;0.22;;;5.50;99.90;;;;;;5031201;28;20038;-80
2024/01/04 06:50:17;;;;;;;4.05;0.47;;;5.50;99.90;;;;;;5013106;28;20092;-79
2024/01/04 06:52:43;;;;;;;1.00;0.30;;;5.50;99.90;;;;;;5024603;28;20053;-81
2024/01/04 06:55:10;;;;;;;0.10;0.10;;;5.50;99.90;;;;;;5013426;28;20048;-81
2024/01/04 06:57:35;;;;;;;1.27;0.10;;;5.50;99.90;;;;;;5030294;28;20052;-82
2024/01/04 07:00:01;;;;;;;0.10;0.00;;;5.40;99.90;;;;;;5010037;28;20148;-81
2024/01/04 07:02:27;;;;;;;2.92;0.38;;;5.50;99.90;;;;;;5029826;28;20042;-81
2024/01/04 07:04:53;;;;;;;0.50;0.20;;;5.40;99.90;;;;;;5007545;28;20089;-81
2024/01/04 07:07:19;;;;;;;0.00;0.00;;;5.50;99.90;;;;;;5019492;28;20097;-82
2024/01/04 07:09:44;;;;;;;0.20;0.10;;;5.50;99.90;;;;;;5026441;28;20041;-81
2024/01/04 07:12:10;;;;;;;0.00;0.00;;;5.40;99.90;;;;;;5023603;28;20069;-81
2024/01/04 07:14:38;;;;;;;5.88;0.20;;;5.50;99.90;;;;;;5042463;28;20060;-80
2024/01/04 07:17:04;;;;;;;1.55;0.00;;;5.40;99.90;;;;;;5029593;28;20087;-80
2024/01/04 07:19:30;;;;;;;0.65;0.22;;;5.40;99.90;;;;;;5004901;28;20490;-81
2024/01/04 07:21:56;;;;;;;0.75;0.00;;;5.40;99.90;;;;;;5015976;28;20048;-82
2024/01/04 07:24:22;;;;;;;0.60;0.22;;;5.40;99.90;;;;;;5009374;28;20047;-81
2024/01/04 07:26:48;;;;;;;0.63;0.20;;;5.40;99.90;;;;;;4999124;28;20045;-81
2024/01/04 07:29:13;;;;;;;0.22;0.17;;;5.40;99.90;;;;;;5025159;28;20045;-80
2024/01/04 07:31:39;;;;;;;0.00;0.00;;;5.40;99.90;;;;;;5023642;28;20049;-81
2024/01/04 07:34:06;;;;;;;0.00;0.00;;;5.40;99.90;;;;;;5028266;28;20064;-81
2024/01/04 07:36:34;;;;;;;0.00;0.00;;;5.50;99.90;;;;;;5019167;28;20546;-81
2024/01/04 07:39:00;;;;;;;0.85;0.13;;;5.40;99.90;;;;;;5007702;28;20041;-80
2024/01/04 07:41:26;;;;;;;0.05;0.00;;;5.30;99.90;;;;;;5025031;28;20041;-81
2024/01/04 07:43:52;;;;;;;0.00;0.00;;;5.40;99.90;;;;;;5031198;28;20544;-79
2024/01/04 07:46:18;;;;;;;0.05;0.00;;;5.40;99.90;;;;;;5028154;28;20034;-81
2024/01/04 07:48:44;;;;;;;0.32;0.20;;;5.40;99.90;;;;;;5029131;28;20041;-80
2024/01/04 07:51:10;;;;;;;1.17;0.38;;;5.40;99.90;;;;;;5010048;28;20077;-81
2024/01/04 07:53:36;;;;;;;0.20;0.03;;;5.30;99.90;;;;;;5012069;28;20046;-80
2024/01/04 07:56:01;;;;;;;0.17;0.08;;;5.30;99.90;;;;;;5025143;28;20052;-81
2024/01/04 07:58:27;;;;;;;0.35;0.10;;;5.20;99.90;;;;;;5029010;28;20079;-82
2024/01/04 08:00:53;;;;;;;0.00;0.00;;;5.20;99.90;;;;;;5030990;28;20033;-80
2024/01/04 08:03:19;;;;;;;0.28;0.20;;;5.20;99.90;;;;;;5030219;28;20073;-79
2024/01/04 08:05:44;;;;;;;0.00;0.00;;;5.20;99.90;;;;;;5020329;28;20060;-81
2024/01/04 08:08:10;;;;;;;0.60;0.10;;;5.20;99.90;;;;;;5008464;28;20417;-80
2024/01/04 08:10:36;;;;;;;0.00;0.00;;;5.20;99.90;;;;;;5024827;28;20117;-81
2024/01/04 08:13:01;;;;;;;0.98;0.10;;;5.20;99.90;;;;;;5022873;28;20037;-82
2024/01/04 08:15:29;;;;;;;0.00;0.00;;;5.20;99.90;;;;;;5030666;28;20038;-81
2024/01/04 08:17:55;;;;;;;0.32;0.10;;;5.20;99.90;;;;;;5027971;28;20394;-80
2024/01/04 08:20:20;;;;;;;0.00;0.00;;;5.30;99.90;;;;;;5028568;28;20044;-82
2024/01/04 08:22:46;;;;;;;0.03;0.00;;;5.30;99.90;;;;;;5044922;28;20124;-81
2024/01/04 08:25:12;;;;;;;0.30;0.00;;;5.30;99.90;;;;;;5015288;28;20120;-81
2024/01/04 08:27:37;;;;;;;0.00;0.00;;;5.30;99.90;;;;;;5030515;28;20568;-80
2024/01/04 08:30:04;;;;;;;0.08;0.05;;;5.30;99.90;;;;;;5017189;28;20045;-81
2024/01/04 08:32:29;;;;;;;0.20;0.20;;;5.30;99.90;;;;;;5012574;28;20501;-81
2024/01/04 08:34:55;;;;;;;0.90;0.30;;;5.40;99.90;;;;;;5031640;28;20030;-82
2024/01/04 08:37:21;;;;;;;0.00;0.00;;;5.40;99.90;;;;;;5011915;28;20419;-81
2024/01/04 08:39:46;;;;;;;0.03;0.03;;;5.40;99.90;;;;;;5013779;28;20062;-81
2024/01/04 08:42:12;;;;;;;3.00;0.50;;;5.40;99.90;;;;;;5028986;28;20044;-82
2024/01/04 08:44:38;;;;;;;0.20;0.10;;;5.40;99.90;;;;;;5009951;28;20586;-81
2024/01/04 08:47:04;;;;;;;0.00;0.00;;;5.50;99.90;;;;;;5026892;28;20099;-79
2024/01/04 08:49:30;;;;;;;0.00;0.00;;;5.50;99.90;;;;;;5030809;28;20482;-81
2024/01/04 08:51:55;;;;;;;1.83;0.65;;;5.50;99.90;;;;;;5009057;28;20073;-80
2024/01/04 08:54:21;;;;;;;0.15;0.08;;;5.50;99.90;;;;;;5027893;28;20037;-81
2024/01/04 08:56:47;;;;;;;0.00;0.00;;;5.50;99.90;;;;;;5028674;28;20041;-81
2024/01/04 08:59:12;;;;;;;0.50;0.22;;;5.50;99.90;;;;;;5005813;28;20056;-81
2024/01/04 09:01:38;;;;;;;0.00;0.00;;;5.60;99.90;;;;;;5047300;28;20061;-80
2024/01/04 09:04:04;;;;;;;0.40;0.05;;;5.60;99.90;;;;;;5012333;28;20088;-80
2024/01/04 09:06:32;;;;;;;0.85;0.20;;;5.60;99.90;;;;;;5006944;28;20104;-81
2024/01/04 09:08:59;;;;;;;4.40;0.32;;;5.70;99.90;;;;;;5026215;28;20042;-80
2024/01/04 09:11:28;;;;;;;1.27;0.10;;;5.60;99.90;;;;;;5028850;28;20053;-82
2024/01/04 09:13:53;;;;;;;0.00;0.00;;;5.70;99.90;;;;;;5010385;28;20034;-80
2024/01/04 09:16:21;;;;;;;0.20;0.10;;;5.70;99.90;;;;;;5027662;28;20052;-80
2024/01/04 09:18:47;;;;;;;0.00;0.00;;;5.70;99.90;;;;;;5027051;28;20053;-81
2024/01/04 09:21:12;;;;;;;1.38;0.13;;;5.70;99.90;;;;;;5032866;28;20041;-81
2024/01/04 09:23:38;;;;;;;0.10;0.10;;;5.80;99.90;;;;;;5025001;28;20044;-81
2024/01/04 09:26:08;;;;;;;0.10;0.10;;;5.80;99.90;;;;;;5027372;28;20037;-81
2024/01/04 09:28:34;;;;;;;1.65;0.00;;;5.80;99.90;;;;;;5026203;28;20102;-80
2024/01/04 09:31:00;;;;;;;0.00;0.00;;;5.80;99.90;;;;;;5029530;28;20089;-81
2024/01/04 09:33:26;;;;;;;0.43;0.20;;;5.80;99.90;;;;;;5027446;28;20096;-80
2024/01/04 09:35:52;;;;;;;0.00;0.00;;;5.80;99.90;;;;;;5013352;28;20026;-81
2024/01/04 09:38:19;;;;;;;1.83;0.35;;;5.80;99.90;;;;;;5009017;28;20052;-80
2024/01/04 09:40:49;;;;;;;1.08;0.20;;;5.90;99.90;;;;;;5025042;28;20044;-80
2024/01/04 09:43:16;;;;;;;0.20;0.20;;;5.80;99.90;;;;;;5023223;28;20072;-80
2024/01/04 09:45:44;;;;;;;0.00;0.00;;;5.90;99.90;;;;;;5011075;28;20159;-81
2024/01/04 09:48:12;;;;;;;0.00;0.00;;;5.90;99.90;;;;;;5030715;28;20072;-81
2024/01/04 09:50:39;;;;;;;0.08;0.00;;;5.90;99.90;;;;;;5022893;28;20175;-80
2024/01/04 09:53:06;;;;;;;0.00;0.00;;;5.90;99.90;;;;;;5025330;28;20042;-82
2024/01/04 09:55:35;;;;;;;0.03;0.03;;;5.90;99.90;;;;;;5025613;28;20045;-81
2024/01/04 09:58:03;;;;;;;0.50;0.20;;;5.90;99.90;;;;;;5031059;28;20045;-81
2024/01/04 10:00:29;;;;;;;0.28;0.00;;;5.90;99.90;;;;;;5010583;28;20053;-79
2024/01/04 10:02:58;;;;;;;0.10;0.00;;;6.00;99.90;;;;;;5017620;28;20041;-80
2024/01/04 10:05:25;;;;;;;0.00;0.00;;;5.90;99.90;;;;;;5028706;28;20397;-81
2024/01/04 10:08:23;;;;;;;0.00;0.00;;;5.90;99.90;;;;;;5024787;28;20466;-81
2024/01/04 10:10:52;;;;;;;0.00;0.00;;;6.00;99.90;;;;;;5031370;28;20134;-81
2024/01/04 10:13:18;;;;;;;0.20;0.00;;;6.00;99.90;;;;;;5029979;28;20037;-80
2024/01/04 10:15:47;;;;;;;7.32;0.20;;;6.00;99.90;;;;;;5030871;28;20048;-81
2024/01/04 10:18:13;;;;;;;0.00;0.00;;;6.00;99.90;;;;;;5024902;28;20042;-81
2024/01/04 10:20:39;;;;;;;0.25;0.20;;;6.10;99.90;;;;;;5017043;28;20045;-80
2024/01/04 10:23:06;;;;;;;0.63;0.30;;;6.10;99.90;;;;;;5023088;28;20056;-81
2024/01/04 10:25:33;;;;;;;3.15;0.20;;;6.20;99.90;;;;;;5010609;28;20148;-81
2024/01/04 10:27:59;;;;;;;0.13;0.00;;;6.10;99.90;;;;;;5026284;28;20054;-82
2024/01/04 10:30:26;;;;;;;0.05;0.00;;;6.20;99.90;;;;;;5010061;28;20045;-81
2024/01/04 10:32:51;;;;;;;0.00;0.00;;;6.20;99.90;;;;;;5030730;28;20049;-82
2024/01/04 10:35:27;;;;;;;0.10;0.00;;;6.20;99.90;;;;;;5006037;28;20030;-81
2024/01/04 10:38:00;;;;;;;0.55;0.05;;;6.20;99.90;;;;;;5043526;28;20030;-81
2024/01/04 10:40:26;;;;;;;0.00;0.00;;;6.20;99.90;;;;;;5028971;28;20467;-81
2024/01/04 10:42:53;;;;;;;1.63;0.13;;;6.20;99.90;;;;;;5028794;28;20073;-79
2024/01/04 10:45:29;;;;;;;0.80;0.30;;;6.20;99.90;;;;;;5014699;28;20041;-81
2024/01/04 10:47:56;;;;;;;0.20;0.10;;;6.20;99.90;;;;;;5033075;28;20037;-81
2024/01/04 10:50:25;;;;;;;0.00;0.00;;;6.20;99.90;;;;;;5025562;28;20049;-81
2024/01/04 10:52:58;;;;;;;0.47;0.10;;;6.20;99.90;;;;;;5024476;28;20049;-80
2024/01/04 10:55:24;;;;;;;0.45;0.17;;;6.20;99.90;;;;;;5010422;28;20034;-81
2024/01/04 10:57:51;;;;;;;3.10;0.57;;;6.30;99.90;;;;;;5014994;28;20237;-80
2024/01/04 11:00:18;;;;;;;0.30;0.10;;;6.40;99.90;;;;;;5027496;28;20072;-81
2024/01/04 11:02:44;;;;;;;0.10;0.03;;;6.40;99.90;;;;;;5025663;28;20114;-80
2024/01/04 11:05:11;;;;;;;0.00;0.00;;;6.40;99.90;;;;;;5028874;28;20048;-81
2024/01/04 11:07:40;;;;;;;0.32;0.00;;;6.40;99.90;;;;;;5018444;28;21574;-81
2024/01/04 11:10:09;;;;;;;0.30;0.10;;;6.40;99.90;;;;;;5045835;28;20050;-80
2024/01/04 11:12:36;;;;;;;0.10;0.08;;;6.40;99.90;;;;;;5026653;28;20045;-82
2024/01/04 11:15:03;;;;;;;0.47;0.25;;;6.40;99.90;;;;;;5028621;28;20102;-81
2024/01/04 11:17:46;;;;;;;0.63;0.03;;;6.40;99.90;;;;;;5003938;28;20592;-81
2024/01/04 11:20:22;;;;;;;0.52;0.10;;;6.40;99.90;;;;;;5028114;28;20103;-81
2024/01/04 11:23:03;;;;;;;0.00;0.00;;;6.40;99.90;;;;;;5023343;28;20120;-81
2024/01/04 11:26:24;;;;;;;0.00;0.00;;;6.40;99.90;;;;;;5029804;28;20046;-81
2024/01/04 11:28:50;;;;;;;0.10;0.00;;;6.40;99.90;;;;;;4960144;28;20054;-81
2024/01/04 11:31:16;;;;;;;0.40;0.15;;;6.40;99.90;;;;;;4976068;28;20046;-80
2024/01/04 11:33:47;;;;;;;0.20;0.00;;;6.40;99.90;;;;;;4987830;28;20053;-81
2024/01/04 11:36:18;;;;;;;0.85;0.10;;;6.40;99.90;;;;;;5010654;28;20067;-80
2024/01/04 11:38:45;;;;;;;0.00;0.00;;;6.50;99.90;;;;;;5014893;28;20033;-81
2024/01/04 11:41:11;;;;;;;0.00;0.00;;;6.50;99.90;;;;;;5009952;28;20571;-81
2024/01/04 11:43:38;;;;;;;0.80;0.17;;;6.50;99.90;;;;;;5020405;28;20038;-81
2024/01/04 11:46:24;;;;;;;0.00;0.00;;;6.60;99.90;;;;;;5013262;28;20478;-81
2024/01/04 11:49:00;;;;;;;0.63;0.10;;;6.50;99.90;;;;;;5023877;28;20046;-81
2024/01/04 11:51:45;;;;;;;0.35;0.20;;;6.50;99.90;;;;;;5027249;28;20068;-80
2024/01/04 11:54:12;;;;;;;0.20;0.03;;;6.50;99.90;;;;;;5020950;28;20525;-80
2024/01/04 11:56:38;;;;;;;0.03;0.00;;;6.40;99.90;;;;;;5024611;28;20780;-80
2024/01/04 11:59:17;;;;;;;0.00;0.00;;;6.40;99.90;;;;;;5021367;28;20066;-81
2024/01/04 12:01:44;;;;;;;0.00;0.00;;;6.40;99.90;;;;;;5036232;28;20143;-80
2024/01/04 12:04:12;;;;;;;0.00;0.00;;;6.40;99.90;;;;;;5021949;28;20041;-81
2024/01/04 12:06:39;;;;;;;0.10;0.00;;;6.40;99.90;;;;;;5005691;28;20037;-79
2024/01/04 12:09:06;;;;;;;0.00;0.00;;;6.40;99.90;;;;;;5034104;28;20096;-80
2024/01/04 12:11:32;;;;;;;0.47;0.10;;;6.40;99.90;;;;;;5011920;28;20034;-81
2024/01/04 12:14:01;;;;;;;0.35;0.22;;;6.50;99.90;;;;;;5010913;28;20133;-80
2024/01/04 12:16:28;;;;;;;0.08;0.08;;;6.50;99.90;;;;;;5018553;28;20037;-80
2024/01/04 12:18:54;;;;;;;0.77;0.10;;;6.50;99.90;;;;;;5035690;28;20049;-81
2024/01/04 12:21:20;;;;;;;4.15;0.85;;;6.50;99.90;;;;;;5016201;28;20983;-81
2024/01/04 12:23:48;;;;;;;1.58;0.38;;;6.60;99.90;;;;;;5009552;28;20087;-80
2024/01/04 12:26:14;;;;;;;0.10;0.10;;;6.60;99.90;;;;;;5026272;28;20087;-81
2024/01/04 12:28:44;;;;;;;1.05;0.20;;;6.60;99.90;;;;;;5029782;28;20060;-81
2024/01/04 12:31:11;;;;;;;0.00;0.00;;;6.60;99.90;;;;;;5014712;28;20057;-80
2024/01/04 12:33:40;;;;;;;0.20;0.15;;;6.50;99.90;;;;;;5027524;28;20421;-81
2024/01/04 12:36:06;;;;;;;0.00;0.00;;;6.50;99.90;;;;;;5029293;28;20061;-80
2024/01/04 12:38:32;;;;;;;0.00;0.00;;;6.50;99.90;;;;;;5019532;28;20100;-82
2024/01/04 12:40:58;;;;;;;0.05;0.00;;;6.50;99.90;;;;;;5024650;28;20414;-80
2024/01/04 12:43:26;;;;;;;0.20;0.10;;;6.50;99.90;;;;;;5036123;28;20097;-81
2024/01/04 12:46:04;;;;;;;3.45;0.10;;;6.50;99.90;;;;;;5023999;28;20108;-80
2024/01/04 12:48:30;;;;;;;0.08;0.08;;;6.50;99.90;;;;;;5048067;28;20041;-81
2024/01/04 12:51:06;;;;;;;0.55;0.20;;;6.50;99.90;;;;;;5005178;28;20041;-81
2024/01/04 12:53:31;;;;;;;0.00;0.00;;;6.50;99.90;;;;;;5030298;28;20616;-79
2024/01/04 12:55:57;;;;;;;0.00;0.00;;;6.50;99.90;;;;;;5009520;28;20045;-81